createdAt,value
2017-10-22T00:01:24.467Z,9.40
2017-10-22T00:03:52.632Z,6.23
2017-10-22T00:06:20.735Z,6.27
2017-10-22T00:08:49.344Z,4.97
2017-10-22T00:11:17.487Z,7.53
2017-10-22T00:13:47.106Z,9.73
2017-10-22T00:16:15.241Z,4.53
2017-10-22T00:18:43.367Z,4.40
2017-10-22T00:21:12.803Z,4.97
2017-10-22T00:23:40.915Z,7.53
2017-10-22T00:26:09.042Z,4.90
2017-10-22T00:28:37.140Z,8.93
2017-10-22T00:31:05.264Z,5.70
2017-10-22T00:33:34.142Z,5.70
2017-10-22T00:36:02.287Z,5.23
2017-10-22T00:38:30.433Z,6.23
2017-10-22T00:40:58.579Z,8.23
2017-10-22T00:43:27.453Z,7.80
2017-10-22T00:45:55.593Z,4.57
2017-10-22T00:48:25.134Z,6.43
2017-10-22T00:50:54.137Z,8.53
2017-10-22T00:53:22.246Z,9.80
2017-10-22T00:55:50.386Z,5.93
2017-10-22T00:58:19.249Z,4.57
2017-10-22T01:00:49.122Z,5.07
2017-10-22T01:03:17.635Z,6.33
2017-10-22T01:05:45.764Z,14.27
2017-10-22T01:08:13.877Z,7.77
2017-10-22T01:10:42.754Z,8.77
2017-10-22T01:13:10.882Z,8.87
2017-10-22T01:15:39.768Z,4.73
2017-10-22T01:18:08.674Z,6.57
2017-10-22T01:20:37.551Z,9.07
2017-10-22T01:23:07.815Z,8.30
2017-10-22T01:25:35.936Z,7.70
2017-10-22T01:28:04.078Z,13.83
2017-10-22T01:30:32.191Z,7.67
2017-10-22T01:33:01.509Z,5.47
2017-10-22T01:35:30.985Z,8.50
2017-10-22T01:37:59.133Z,9.50
2017-10-22T01:40:27.255Z,5.67
2017-10-22T01:42:56.548Z,7.77
2017-10-22T01:45:25.470Z,8.17
2017-10-22T01:47:53.603Z,7.53
2017-10-22T01:50:21.729Z,9.80
2017-10-22T01:52:49.864Z,7.20
2017-10-22T01:55:18.739Z,10.57
2017-10-22T01:57:47.783Z,8.47
2017-10-22T02:00:15.908Z,10.70
2017-10-22T02:02:45.324Z,9.20
2017-10-22T02:05:15.793Z,11.30
2017-10-22T02:07:43.934Z,10.93
2017-10-22T02:10:12.051Z,11.10
2017-10-22T02:12:40.187Z,7.97
2017-10-22T02:15:08.301Z,7.00
2017-10-22T02:17:36.442Z,7.70
2017-10-22T02:20:04.577Z,10.90
2017-10-22T02:22:33.472Z,9.17
2017-10-22T02:25:02.444Z,5.00
2017-10-22T02:27:30.558Z,9.50
2017-10-22T02:29:59.664Z,12.50
2017-10-22T02:32:27.777Z,7.23
2017-10-22T02:34:55.902Z,7.30
2017-10-22T02:37:23.999Z,8.87
2017-10-22T02:39:52.680Z,8.13
2017-10-22T02:42:20.807Z,6.77
2017-10-22T02:44:49.722Z,6.67
2017-10-22T02:47:18.393Z,6.20
2017-10-22T02:49:47.297Z,7.10
2017-10-22T02:52:15.431Z,6.40
2017-10-22T02:54:43.571Z,6.23
2017-10-22T02:57:11.677Z,7.40
2017-10-22T02:59:39.814Z,10.23
2017-10-22T03:02:07.933Z,5.10
2017-10-22T03:04:36.098Z,9.97
2017-10-22T03:07:04.206Z,8.50
2017-10-22T03:09:32.389Z,11.80
2017-10-22T03:12:00.514Z,8.27
2017-10-22T03:14:28.646Z,11.57
2017-10-22T03:16:57.195Z,15.23
2017-10-22T03:19:26.085Z,8.30
2017-10-22T03:21:54.963Z,8.70
2017-10-22T03:24:23.117Z,8.47
2017-10-22T03:26:52.574Z,10.93
2017-10-22T03:29:20.703Z,6.63
2017-10-22T03:31:48.826Z,7.67
2017-10-22T03:34:16.969Z,6.67
2017-10-22T03:36:45.850Z,10.40
2017-10-22T03:39:13.965Z,6.80
2017-10-22T03:41:42.104Z,6.43
2017-10-22T03:44:10.975Z,8.60
2017-10-22T03:46:39.100Z,6.43
2017-10-22T03:49:07.230Z,14.23
2017-10-22T03:51:35.381Z,8.90
2017-10-22T03:54:03.502Z,8.10
2017-10-22T03:56:32.949Z,9.47
2017-10-22T03:59:01.145Z,9.47
2017-10-22T04:01:29.269Z,8.73
2017-10-22T04:03:57.398Z,7.97
2017-10-22T04:06:25.527Z,13.23
2017-10-22T04:08:53.653Z,10.73
2017-10-22T04:11:21.790Z,13.93
2017-10-22T04:13:49.906Z,5.30
2017-10-22T04:16:18.819Z,11.97
2017-10-22T04:18:46.945Z,9.97
2017-10-22T04:21:15.552Z,12.60
2017-10-22T04:23:44.450Z,13.03
2017-10-22T04:26:13.362Z,8.20
2017-10-22T04:28:41.474Z,8.87
2017-10-22T04:31:09.615Z,5.77
2017-10-22T04:33:39.990Z,8.37
2017-10-22T04:36:10.051Z,9.83
2017-10-22T04:38:39.190Z,18.33
2017-10-22T04:41:09.709Z,10.87
2017-10-22T04:43:37.825Z,11.27
2017-10-22T04:46:07.902Z,11.37
2017-10-22T04:48:36.529Z,14.03
2017-10-22T04:51:06.825Z,9.03
2017-10-22T04:53:36.200Z,11.30
2017-10-22T04:56:04.356Z,8.53
2017-10-22T04:58:34.938Z,4.70
2017-10-22T05:01:04.479Z,7.00
2017-10-22T05:03:34.142Z,14.53
2017-10-22T05:06:03.608Z,12.07
2017-10-22T05:08:32.971Z,8.63
2017-10-22T05:11:02.821Z,9.23
2017-10-22T05:13:32.285Z,10.93
2017-10-22T05:16:02.825Z,7.60
2017-10-22T05:18:31.735Z,12.77
2017-10-22T05:20:59.885Z,10.93
2017-10-22T05:23:28.616Z,6.83
2017-10-22T05:25:57.978Z,10.40
2017-10-22T05:28:27.485Z,9.30
2017-10-22T05:30:56.360Z,6.23
2017-10-22T05:33:24.492Z,8.47
2017-10-22T05:35:54.784Z,10.97
2017-10-22T05:38:22.922Z,9.30
2017-10-22T05:40:51.040Z,4.60
2017-10-22T05:43:20.512Z,8.33
2017-10-22T05:45:49.873Z,6.00
2017-10-22T05:48:19.218Z,7.37
2017-10-22T05:50:50.250Z,9.30
2017-10-22T05:53:18.391Z,6.70
2017-10-22T05:55:49.087Z,8.30
2017-10-22T05:58:19.805Z,9.87
2017-10-22T06:00:47.900Z,9.03
2017-10-22T06:03:16.047Z,9.50
2017-10-22T06:05:44.936Z,7.47
2017-10-22T06:08:13.934Z,12.07
2017-10-22T06:10:42.800Z,7.43
2017-10-22T06:13:10.934Z,8.90
2017-10-22T06:15:40.114Z,7.53
2017-10-22T06:18:11.632Z,5.70
2017-10-22T06:20:40.841Z,3.60
2017-10-22T06:23:08.983Z,5.47
2017-10-22T06:25:38.422Z,6.60
2017-10-22T06:28:06.987Z,7.90
2017-10-22T06:30:35.912Z,6.53
2017-10-22T06:33:05.929Z,8.93
2017-10-22T06:35:34.837Z,12.53
2017-10-22T06:38:02.952Z,15.20
2017-10-22T06:40:31.513Z,8.30
2017-10-22T06:43:00.651Z,7.53
2017-10-22T06:45:31.201Z,5.73
2017-10-22T06:48:00.087Z,6.07
2017-10-22T06:50:29.158Z,9.03
2017-10-22T06:52:57.620Z,7.53
2017-10-22T06:55:25.756Z,6.53
2017-10-22T06:57:55.217Z,9.93
2017-10-22T07:00:24.003Z,8.40
2017-10-22T07:02:53.832Z,9.17
2017-10-22T07:05:24.172Z,8.53
2017-10-22T07:07:53.627Z,9.37
2017-10-22T07:10:25.034Z,13.67
2017-10-22T07:12:53.158Z,7.00
2017-10-22T07:15:23.073Z,8.60
2017-10-22T07:17:51.186Z,13.90
2017-10-22T07:20:20.091Z,9.27
2017-10-22T07:22:48.327Z,5.27
2017-10-22T07:25:18.160Z,10.20
2017-10-22T07:27:47.054Z,3.20
2017-10-22T07:30:15.920Z,5.67
2017-10-22T07:32:44.070Z,6.50
2017-10-22T07:35:12.183Z,10.23
2017-10-22T07:37:41.505Z,7.87
2017-10-22T07:40:09.632Z,7.43
2017-10-22T07:42:37.817Z,9.73
2017-10-22T07:45:06.006Z,11.63
2017-10-22T07:47:34.909Z,6.10
2017-10-22T07:50:04.016Z,7.77
2017-10-22T07:52:32.142Z,8.80
2017-10-22T07:55:00.262Z,9.35
2017-10-22T07:57:28.410Z,8.30
2017-10-22T07:59:57.279Z,10.60
2017-10-22T08:02:25.426Z,7.27
2017-10-22T08:04:53.558Z,11.33
2017-10-22T08:07:22.146Z,9.97
2017-10-22T08:09:51.033Z,10.20
2017-10-22T08:12:19.932Z,6.40
2017-10-22T08:14:48.046Z,8.37
2017-10-22T08:17:16.176Z,8.63
2017-10-22T08:19:44.754Z,13.87
2017-10-22T08:22:13.367Z,10.00
2017-10-22T08:24:42.535Z,9.03
2017-10-22T08:27:11.445Z,6.43
2017-10-22T08:29:39.569Z,7.83
2017-10-22T08:32:07.745Z,12.13
2017-10-22T08:34:36.681Z,12.00
2017-10-22T08:37:04.805Z,6.13
2017-10-22T08:39:32.953Z,5.80
2017-10-22T08:42:01.064Z,12.03
2017-10-22T08:44:29.201Z,5.10
2017-10-22T08:46:58.014Z,10.40
2017-10-22T08:49:26.144Z,5.90
2017-10-22T08:51:54.262Z,7.13
2017-10-22T08:54:22.387Z,7.00
2017-10-22T08:56:50.539Z,7.63
2017-10-22T08:59:19.442Z,12.00
2017-10-22T09:01:47.575Z,10.10
2017-10-22T09:04:15.724Z,5.27
2017-10-22T09:06:44.618Z,8.87
2017-10-22T09:09:13.512Z,6.73
2017-10-22T09:11:41.625Z,7.23
2017-10-22T09:14:10.544Z,5.90
2017-10-22T09:16:38.658Z,8.93
2017-10-22T09:19:06.796Z,18.37
2017-10-22T09:21:34.932Z,4.80
2017-10-22T09:24:03.093Z,9.23
2017-10-22T09:26:32.458Z,9.80
2017-10-22T09:29:01.373Z,11.90
2017-10-22T09:31:29.476Z,8.80
2017-10-22T09:33:58.395Z,8.93
2017-10-22T09:36:26.544Z,10.70
2017-10-22T09:38:55.438Z,9.50
2017-10-22T09:41:24.333Z,5.93
2017-10-22T09:43:52.432Z,4.90
2017-10-22T09:46:20.570Z,7.00
2017-10-22T09:48:49.519Z,6.43
2017-10-22T09:51:17.652Z,11.43
2017-10-22T09:53:45.763Z,6.50
2017-10-22T09:56:13.926Z,5.67
2017-10-22T09:58:42.067Z,5.60
2017-10-22T10:01:10.224Z,7.37
2017-10-22T10:03:39.087Z,5.53
2017-10-22T10:08:41.910Z,6.80
2017-10-22T10:11:10.815Z,7.50
2017-10-22T10:13:40.514Z,4.53
2017-10-22T10:16:09.422Z,3.93
2017-10-22T10:18:38.315Z,3.97
2017-10-22T10:21:06.987Z,4.23
2017-10-22T10:23:35.571Z,4.07
2017-10-22T10:26:04.865Z,7.70
2017-10-22T10:28:33.789Z,4.87
2017-10-22T10:31:03.382Z,8.40
2017-10-22T10:33:31.535Z,9.37
2017-10-22T10:36:00.462Z,3.67
2017-10-22T10:38:28.617Z,3.00
2017-10-22T10:40:56.766Z,4.73
2017-10-22T10:43:26.128Z,7.70
2017-10-22T10:45:54.266Z,4.73
2017-10-22T10:48:22.387Z,3.33
2017-10-22T10:50:50.494Z,5.13
2017-10-22T10:53:20.129Z,2.40
2017-10-22T10:55:48.231Z,2.73
2017-10-22T10:58:17.133Z,4.53
2017-10-22T11:00:45.735Z,3.33
2017-10-22T11:03:13.867Z,3.20
2017-10-22T11:05:42.117Z,7.77
2017-10-22T11:08:12.409Z,6.10
2017-10-22T11:10:40.569Z,6.30
2017-10-22T11:13:08.728Z,4.20
2017-10-22T11:15:38.297Z,3.53
2017-10-22T11:18:06.436Z,8.33
2017-10-22T11:20:34.568Z,2.77
2017-10-22T11:23:02.707Z,5.03
2017-10-22T11:25:33.178Z,2.03
2017-10-22T11:28:01.827Z,5.77
2017-10-22T11:30:30.701Z,5.43
2017-10-22T11:32:59.591Z,2.30
2017-10-22T11:35:28.470Z,4.90
2017-10-22T11:37:58.668Z,2.77
2017-10-22T11:40:27.286Z,3.83
2017-10-22T11:42:57.391Z,4.47
2017-10-22T11:45:25.492Z,2.27
2017-10-22T11:47:53.638Z,5.07
2017-10-22T11:50:21.741Z,3.27
2017-10-22T11:52:49.851Z,3.93
2017-10-22T11:55:19.554Z,5.70
2017-10-22T11:57:52.913Z,2.83
2017-10-22T12:00:22.166Z,2.33
2017-10-22T12:02:50.276Z,3.50
2017-10-22T12:05:19.735Z,2.63
2017-10-22T12:07:47.835Z,2.53
2017-10-22T12:10:15.981Z,3.80
2017-10-22T12:12:44.642Z,3.50
2017-10-22T12:15:15.036Z,2.40
2017-10-22T12:17:43.168Z,1.43
2017-10-22T12:20:11.309Z,2.90
2017-10-22T12:22:40.771Z,2.73
2017-10-22T12:25:08.914Z,2.90
2017-10-22T12:27:37.026Z,2.50
2017-10-22T12:30:05.180Z,3.40
2017-10-22T12:32:34.369Z,2.20
2017-10-22T12:35:03.304Z,1.50
2017-10-22T12:37:32.741Z,8.03
2017-10-22T12:40:01.293Z,2.90
2017-10-22T12:42:31.189Z,4.30
2017-10-22T12:44:59.342Z,3.17
2017-10-22T12:47:27.458Z,1.70
2017-10-22T12:49:58.465Z,3.10
2017-10-22T12:52:27.646Z,1.40
2017-10-22T12:54:56.196Z,4.93
2017-10-22T12:57:27.594Z,5.53
2017-10-22T12:59:56.865Z,2.67
2017-10-22T13:02:26.231Z,5.27
2017-10-22T13:04:55.154Z,2.60
2017-10-22T13:07:23.709Z,2.57
2017-10-22T13:09:53.671Z,4.77
2017-10-22T13:12:22.297Z,1.43
2017-10-22T13:14:50.429Z,4.10
2017-10-22T13:17:19.792Z,2.10
2017-10-22T13:19:47.978Z,2.00
2017-10-22T13:22:17.473Z,2.17
2017-10-22T13:24:47.222Z,5.53
2017-10-22T13:27:16.685Z,1.80
2017-10-22T13:29:45.796Z,6.57
2017-10-22T13:32:14.096Z,4.20
2017-10-22T13:34:42.282Z,2.00
2017-10-22T13:37:10.583Z,2.33
2017-10-22T13:39:38.711Z,3.13
2017-10-22T13:42:07.763Z,3.03
2017-10-22T13:44:36.887Z,1.57
2017-10-22T13:47:06.169Z,2.40
2017-10-22T13:49:34.319Z,1.60
2017-10-22T13:52:03.237Z,2.00
2017-10-22T13:54:31.347Z,1.77
2017-10-22T13:56:59.524Z,1.30
2017-10-22T13:59:29.573Z,1.40
2017-10-22T14:01:57.798Z,3.10
2017-10-22T14:04:27.030Z,1.70
2017-10-22T14:06:55.230Z,1.50
2017-10-22T14:09:23.468Z,3.13
2017-10-22T14:11:51.600Z,6.10
2017-10-22T14:14:20.584Z,1.70
2017-10-22T14:16:50.322Z,1.60
2017-10-22T14:19:19.278Z,2.37
2017-10-22T14:21:47.414Z,3.97
2017-10-22T14:24:15.978Z,4.27
2017-10-22T14:26:44.607Z,4.83
2017-10-22T14:29:13.828Z,1.70
2017-10-22T14:31:44.063Z,2.10
2017-10-22T14:34:14.369Z,1.27
2017-10-22T14:36:44.562Z,2.27
2017-10-22T14:39:12.706Z,1.77
2017-10-22T14:41:43.173Z,2.13
2017-10-22T14:44:11.298Z,1.63
2017-10-22T14:46:39.752Z,1.57
2017-10-22T14:49:09.069Z,2.60
2017-10-22T14:51:40.262Z,2.20
2017-10-22T14:54:09.171Z,2.40
2017-10-22T14:56:37.268Z,3.10
2017-10-22T14:59:06.166Z,4.03
2017-10-22T15:01:35.675Z,1.30
2017-10-22T15:04:03.893Z,2.07
2017-10-22T15:06:32.007Z,1.77
2017-10-22T15:09:00.132Z,1.57
2017-10-22T15:11:28.235Z,1.80
2017-10-22T15:13:56.382Z,3.20
2017-10-22T15:16:26.275Z,2.03
2017-10-22T15:18:54.414Z,1.50
2017-10-22T15:21:22.530Z,3.47
2017-10-22T15:23:50.665Z,1.50
2017-10-22T15:26:18.763Z,2.10
2017-10-22T15:28:46.896Z,1.60
2017-10-22T15:31:15.000Z,3.60
2017-10-22T15:33:44.886Z,2.53
2017-10-22T15:36:14.113Z,2.87
2017-10-22T15:38:44.425Z,1.77
2017-10-22T15:41:13.342Z,2.03
2017-10-22T15:43:43.554Z,2.53
2017-10-22T15:46:11.695Z,4.93
2017-10-22T15:48:40.407Z,2.00
2017-10-22T15:51:09.989Z,1.97
2017-10-22T15:53:40.564Z,3.07
2017-10-22T15:56:12.024Z,1.90
2017-10-22T15:58:42.117Z,3.70
2017-10-22T16:01:10.877Z,3.23
2017-10-22T16:03:40.147Z,3.13
2017-10-22T16:06:08.907Z,3.40
2017-10-22T16:08:37.761Z,3.60
2017-10-22T16:11:07.665Z,4.00
2017-10-22T16:13:36.881Z,10.43
2017-10-22T16:16:05.786Z,3.33
2017-10-22T16:18:35.306Z,3.07
2017-10-22T16:21:04.548Z,4.13
2017-10-22T16:23:32.661Z,5.40
2017-10-22T16:26:02.784Z,3.37
2017-10-22T16:28:33.416Z,3.13
2017-10-22T16:31:05.367Z,3.80
2017-10-22T16:33:35.308Z,4.33
2017-10-22T16:36:04.637Z,6.07
2017-10-22T16:38:33.938Z,6.27
2017-10-22T16:41:02.076Z,9.00
2017-10-22T16:43:30.198Z,8.40
2017-10-22T16:45:58.341Z,14.43
2017-10-22T16:48:26.905Z,17.37
2017-10-22T16:50:55.788Z,9.30
2017-10-22T16:53:24.650Z,8.30
2017-10-22T16:55:52.771Z,7.50
2017-10-22T16:58:21.330Z,10.13
2017-10-22T17:00:49.754Z,9.03
2017-10-22T17:03:19.114Z,8.40
2017-10-22T17:05:47.535Z,5.20
2017-10-22T17:08:16.441Z,6.30
2017-10-22T17:10:45.115Z,5.77
2017-10-22T17:13:14.007Z,6.10
2017-10-22T17:15:42.128Z,10.90
2017-10-22T17:18:11.510Z,7.00
2017-10-22T17:20:42.652Z,8.17
2017-10-22T17:23:13.189Z,8.67
2017-10-22T17:25:41.293Z,9.27
2017-10-22T17:28:09.462Z,19.07
2017-10-22T17:30:39.118Z,15.83
2017-10-22T17:33:09.652Z,85.60
2017-10-22T17:35:37.824Z,15.10
2017-10-22T17:38:05.957Z,15.57
2017-10-22T17:40:34.077Z,9.33
2017-10-22T17:43:02.769Z,10.63
2017-10-22T17:45:34.241Z,5.90
2017-10-22T17:48:04.160Z,16.30
2017-10-22T17:50:37.361Z,15.03
2017-10-22T17:53:07.020Z,10.90
2017-10-22T17:55:38.848Z,11.97
2017-10-22T17:58:07.265Z,11.97
2017-10-22T18:00:35.507Z,9.00
2017-10-22T18:03:05.000Z,5.47
2017-10-22T18:05:34.016Z,7.90
2017-10-22T18:08:02.738Z,9.57
2017-10-22T18:10:30.913Z,11.83
2017-10-22T18:12:59.458Z,8.90
2017-10-22T18:15:29.754Z,16.97
2017-10-22T18:17:59.088Z,9.90
2017-10-22T18:20:28.340Z,8.23
2017-10-22T18:22:56.923Z,9.07
2017-10-22T18:25:25.796Z,9.87
2017-10-22T18:27:57.064Z,11.00
2017-10-22T18:30:25.817Z,9.40
2017-10-22T18:32:53.936Z,10.70
2017-10-22T18:35:22.074Z,10.23
2017-10-22T18:37:50.627Z,13.87
2017-10-22T18:40:19.073Z,11.97
2017-10-22T18:42:48.499Z,11.10
2017-10-22T18:45:19.558Z,12.17
2017-10-22T18:47:49.210Z,16.33
2017-10-22T18:50:17.530Z,10.27
2017-10-22T18:52:46.041Z,15.17
2017-10-22T18:55:14.173Z,12.80
2017-10-22T18:57:42.307Z,11.60
2017-10-22T19:00:12.120Z,14.17
2017-10-22T19:02:40.231Z,45.23
2017-10-22T19:05:09.692Z,21.80
2017-10-22T19:07:39.506Z,19.37
2017-10-22T19:10:09.245Z,16.23
2017-10-22T19:12:38.843Z,10.13
2017-10-22T19:15:07.746Z,14.20
2017-10-22T19:17:36.772Z,17.10
2017-10-22T19:20:05.170Z,11.80
2017-10-22T19:22:34.061Z,9.97
2017-10-22T19:25:02.211Z,13.90
2017-10-22T19:27:32.133Z,13.93
2017-10-22T19:30:00.691Z,11.23
2017-10-22T19:32:28.810Z,15.90
2017-10-22T19:34:56.992Z,12.47
2017-10-22T19:37:25.809Z,14.20
2017-10-22T19:39:54.709Z,16.53
2017-10-22T19:42:24.505Z,16.53
2017-10-22T19:44:52.728Z,16.67
2017-10-22T19:47:20.888Z,16.07
2017-10-22T19:49:49.095Z,17.00
2017-10-22T19:52:17.608Z,14.77
2017-10-22T19:54:45.780Z,17.20
2017-10-22T19:57:15.189Z,21.93
2017-10-22T19:59:44.068Z,16.20
2017-10-22T20:02:13.551Z,13.93
2017-10-22T20:04:42.573Z,17.70
2017-10-22T20:07:11.531Z,17.60
2017-10-22T20:09:40.078Z,14.60
2017-10-22T20:12:09.067Z,15.30
2017-10-22T20:14:37.337Z,19.27
2017-10-22T20:17:05.478Z,14.57
2017-10-22T20:19:34.164Z,11.90
2017-10-22T20:22:03.195Z,16.40
2017-10-22T20:24:31.862Z,15.10
2017-10-22T20:27:02.706Z,19.20
2017-10-22T20:29:31.789Z,14.57
2017-10-22T20:31:59.952Z,18.90
2017-10-22T20:34:32.454Z,16.37
2017-10-22T20:37:02.740Z,16.10
2017-10-22T20:39:31.318Z,21.97
2017-10-22T20:42:02.760Z,14.40
2017-10-22T20:44:31.588Z,12.50
2017-10-22T20:46:59.785Z,13.03
2017-10-22T20:49:30.536Z,16.10
2017-10-22T20:51:58.694Z,17.40
2017-10-22T20:54:27.829Z,17.77
2017-10-22T20:56:57.317Z,22.60
2017-10-22T20:59:25.549Z,18.30
2017-10-22T21:01:54.557Z,18.63
2017-10-22T21:04:24.699Z,18.80
2017-10-22T21:06:52.827Z,17.50
2017-10-22T21:09:21.545Z,17.57
2017-10-22T21:11:50.664Z,17.10
2017-10-22T21:14:19.046Z,16.40
2017-10-22T21:16:47.185Z,22.40
2017-10-22T21:19:16.598Z,15.63
2017-10-22T21:21:46.530Z,18.83
2017-10-22T21:24:16.139Z,15.30
2017-10-22T21:26:45.562Z,12.27
2017-10-22T21:29:14.542Z,13.80
2017-10-22T21:31:45.333Z,19.57
2017-10-22T21:34:13.805Z,15.73
2017-10-22T21:36:43.142Z,19.10
2017-10-22T21:39:12.073Z,19.10
2017-10-22T21:41:40.201Z,32.97
2017-10-22T21:44:10.089Z,16.77
2017-10-22T21:46:38.218Z,27.93
2017-10-22T21:49:06.823Z,18.90
2017-10-22T21:51:36.651Z,19.93
2017-10-22T21:54:04.780Z,17.20
2017-10-22T21:56:32.941Z,13.63
2017-10-22T21:59:01.105Z,16.27
2017-10-22T22:01:29.700Z,18.50
2017-10-22T22:03:57.897Z,19.03
2017-10-22T22:06:28.087Z,16.20
2017-10-22T22:08:57.379Z,18.53
2017-10-22T22:11:26.782Z,20.47
2017-10-22T22:13:55.666Z,16.87
2017-10-22T22:16:24.586Z,16.57
2017-10-22T22:18:52.696Z,20.10
2017-10-22T22:21:20.849Z,21.97
2017-10-22T22:23:51.633Z,13.87
2017-10-22T22:26:20.384Z,15.87
2017-10-22T22:28:48.543Z,22.37
2017-10-22T22:31:16.677Z,17.63
2017-10-22T22:33:44.811Z,15.67
2017-10-22T22:36:14.394Z,19.70
2017-10-22T22:38:42.555Z,19.27
2017-10-22T22:41:10.712Z,16.80
2017-10-22T22:43:38.813Z,19.23
2017-10-22T22:46:07.926Z,20.60
2017-10-22T22:48:36.067Z,13.37
2017-10-22T22:51:05.670Z,14.97
2017-10-22T22:53:35.456Z,14.17
2017-10-22T22:56:03.647Z,18.87
2017-10-22T22:58:32.219Z,16.03
2017-10-22T23:01:00.376Z,16.73
2017-10-22T23:03:28.508Z,15.50
2017-10-22T23:05:57.289Z,16.73
2017-10-22T23:08:25.396Z,14.87
2017-10-22T23:10:55.898Z,12.67
2017-10-22T23:13:24.956Z,15.33
2017-10-22T23:15:54.063Z,13.87
2017-10-22T23:18:25.662Z,14.07
2017-10-22T23:20:55.822Z,17.43
2017-10-22T23:23:25.414Z,13.27
2017-10-22T23:25:54.449Z,17.73
2017-10-22T23:28:24.532Z,16.70
2017-10-22T23:30:52.649Z,13.50
2017-10-22T23:33:20.791Z,14.50
2017-10-22T23:35:48.905Z,13.90
2017-10-22T23:38:17.045Z,15.00
2017-10-22T23:40:45.150Z,15.40
2017-10-22T23:43:13.301Z,14.57
2017-10-22T23:45:44.556Z,13.93
2017-10-22T23:48:12.711Z,13.63
2017-10-22T23:50:40.831Z,14.60
2017-10-22T23:53:10.094Z,18.00
2017-10-22T23:55:38.972Z,19.90
2017-10-22T23:58:09.195Z,10.87
